Decoded Metar for CWSA (SABLE ISLAND in NS, CANADA) (IATA:WSA) | Meteo·Mobile Aviation Weather
aviador You're here:

CWSA Decoded Metar

SABLE ISLAND in NS, CANADA
Report Time2019-07-23 02:00:00
UTC Time2019-07-23 02:35:39
Flight Rules mvfr MVFR
Wind160° at 04 kt
Visibility8047 m
Phenomena:Mist
Clouds:N/A
CeilingNone
Temp15°C (ISA 0)
Dew Point15°C (100% RH)
QNH1014 hPa
Density Alt210 ft
Elevation13 ft
Report Wrong Elevation
Raw Report
CWSA 230200Z AUTO 16004KT 5SM BR CLR 15/15 A2993 RMK SLP138=

Extra information for CWSA:More info

Metar Taf Metar & Taf Last 4 Metars F.Rules Stats Wind Profile Meteogram Temp Stats Airport Information Weather charts Add Link Nearby VenuesMetar ALERT Operation Metar Decoded Social comments